createdAt,value
2022-08-28T00:01:13.295Z,10.86
2022-08-28T00:03:39.642Z,10.91
2022-08-28T00:06:06.251Z,10.87
2022-08-28T00:08:32.625Z,10.92
2022-08-28T00:10:59.073Z,10.90
2022-08-28T00:13:26.062Z,10.85
2022-08-28T00:15:56.923Z,10.79
2022-08-28T00:18:23.592Z,10.76
2022-08-28T00:20:51.248Z,10.72
2022-08-28T00:23:18.344Z,10.69
2022-08-28T00:25:44.866Z,10.64
2022-08-28T00:28:24.325Z,10.68
2022-08-28T00:30:53.938Z,10.58
2022-08-28T00:33:23.893Z,10.63
2022-08-28T00:35:51.406Z,10.63
2022-08-28T00:38:19.271Z,10.64
2022-08-28T00:40:49.553Z,10.61
2022-08-28T00:43:36.782Z,10.69
2022-08-28T00:46:06.637Z,10.72
2022-08-28T00:48:33.373Z,10.71
2022-08-28T00:51:00.932Z,10.68
2022-08-28T00:53:30.037Z,10.74
2022-08-28T00:55:59.635Z,10.72
2022-08-28T00:58:26.078Z,10.64
2022-08-28T01:00:52.473Z,10.70
2022-08-28T01:03:18.870Z,10.69
2022-08-28T01:05:45.332Z,10.69
2022-08-28T01:08:11.929Z,10.63
2022-08-28T01:10:42.333Z,10.66
2022-08-28T01:13:08.973Z,10.61
2022-08-28T01:15:37.475Z,10.57
2022-08-28T01:18:08.395Z,10.57
2022-08-28T01:20:42.112Z,10.56
2022-08-28T01:23:34.341Z,10.62
2022-08-28T01:26:00.780Z,10.58
2022-08-28T01:28:27.932Z,10.48
2022-08-28T01:30:54.335Z,10.50
2022-08-28T01:33:27.906Z,10.46
2022-08-28T01:35:54.901Z,10.43
2022-08-28T01:38:26.737Z,10.44
2022-08-28T01:40:54.460Z,10.42
2022-08-28T01:43:23.764Z,10.41
2022-08-28T01:45:54.437Z,10.42
2022-08-28T01:48:23.580Z,10.40
2022-08-28T01:50:50.220Z,10.34
2022-08-28T01:53:19.641Z,10.31
2022-08-28T01:55:52.115Z,10.26
2022-08-28T01:58:19.137Z,10.21
2022-08-28T02:00:45.587Z,10.16
2022-08-28T02:03:11.982Z,10.13
2022-08-28T02:05:39.868Z,10.10
2022-08-28T02:08:07.805Z,10.06
2022-08-28T02:10:36.708Z,10.03
2022-08-28T02:13:05.488Z,9.98
2022-08-28T02:15:32.956Z,9.98
2022-08-28T02:18:00.231Z,9.95
2022-08-28T02:20:27.493Z,9.95
2022-08-28T02:22:53.900Z,9.92
2022-08-28T02:25:20.273Z,9.82
2022-08-28T02:27:46.724Z,9.72
2022-08-28T02:30:16.296Z,9.76
2022-08-28T02:32:44.469Z,9.73
2022-08-28T02:35:12.254Z,9.70
2022-08-28T02:37:38.883Z,9.67
2022-08-28T02:40:06.071Z,9.58
2022-08-28T02:42:32.450Z,9.63
2022-08-28T02:44:58.859Z,9.59
2022-08-28T02:47:25.300Z,9.56
2022-08-28T02:49:51.650Z,9.46
2022-08-28T02:52:18.117Z,9.49
2022-08-28T02:54:44.545Z,9.44
2022-08-28T02:57:10.877Z,9.28
2022-08-28T02:59:38.197Z,9.32
2022-08-28T03:02:06.252Z,9.34
2022-08-28T03:04:34.188Z,9.29
2022-08-28T03:07:00.558Z,9.18
2022-08-28T03:09:27.093Z,9.17
2022-08-28T03:11:53.655Z,9.13
2022-08-28T03:14:23.535Z,9.18
2022-08-28T03:16:49.941Z,9.07
2022-08-28T03:19:16.567Z,9.02
2022-08-28T03:21:43.018Z,8.95
2022-08-28T03:24:09.572Z,9.07
2022-08-28T03:26:36.153Z,9.04
2022-08-28T03:29:02.677Z,8.89
2022-08-28T03:31:30.209Z,8.89
2022-08-28T03:33:56.569Z,8.89
2022-08-28T03:36:24.945Z,8.90
2022-08-28T03:38:53.249Z,8.82
2022-08-28T03:41:21.768Z,8.78
2022-08-28T03:43:48.127Z,8.84
2022-08-28T03:46:22.202Z,8.83
2022-08-28T03:48:48.569Z,8.73
2022-08-28T03:51:29.408Z,8.77
2022-08-28T03:53:57.876Z,8.73
2022-08-28T03:56:26.231Z,8.69
2022-08-28T03:58:55.057Z,8.72
2022-08-28T04:01:21.927Z,8.71
2022-08-28T04:03:48.562Z,8.73
2022-08-28T04:06:15.204Z,8.75
2022-08-28T04:08:42.077Z,8.72
2022-08-28T04:11:08.451Z,8.77
2022-08-28T04:13:34.804Z,8.74
2022-08-28T04:16:05.067Z,8.81
2022-08-28T04:18:32.740Z,8.71
2022-08-28T04:21:07.569Z,8.74
2022-08-28T04:23:35.623Z,8.72
2022-08-28T04:26:05.149Z,8.71
2022-08-28T04:28:31.897Z,8.68
2022-08-28T04:30:58.884Z,8.67
2022-08-28T04:33:27.270Z,8.65
2022-08-28T04:35:54.455Z,8.56
2022-08-28T04:38:21.086Z,8.51
2022-08-28T04:40:48.097Z,8.62
2022-08-28T04:43:14.595Z,8.54
2022-08-28T04:45:45.596Z,8.57
2022-08-28T04:48:13.765Z,8.50
2022-08-28T04:50:48.422Z,8.59
2022-08-28T04:53:17.210Z,8.53
2022-08-28T04:55:54.557Z,8.56
2022-08-28T04:58:24.299Z,8.66
2022-08-28T05:00:52.829Z,8.71
2022-08-28T05:03:19.795Z,8.73
2022-08-28T05:05:49.829Z,8.73
2022-08-28T05:08:18.220Z,8.84
2022-08-28T05:10:44.974Z,8.89
2022-08-28T05:13:13.013Z,8.94
2022-08-28T05:15:40.357Z,8.99
2022-08-28T05:18:06.737Z,9.06
2022-08-28T05:20:37.957Z,9.12
2022-08-28T05:23:06.154Z,9.20
2022-08-28T05:25:37.177Z,9.32
2022-08-28T05:28:04.229Z,9.52
2022-08-28T05:30:30.549Z,9.91
2022-08-28T05:32:56.958Z,10.39
2022-08-28T05:35:23.338Z,11.29
2022-08-28T05:37:49.682Z,12.01
2022-08-28T05:40:16.647Z,12.95
2022-08-28T05:42:43.058Z,13.82
2022-08-28T05:45:09.452Z,14.66
2022-08-28T05:47:35.784Z,15.52
2022-08-28T05:50:02.152Z,16.45
2022-08-28T05:52:28.660Z,17.31
2022-08-28T05:54:55.541Z,18.12
2022-08-28T05:57:21.868Z,18.96
2022-08-28T05:59:48.312Z,19.78
2022-08-28T06:02:14.676Z,20.46
2022-08-28T06:04:41.016Z,21.03
2022-08-28T06:07:07.469Z,21.54
2022-08-28T06:09:33.860Z,21.67
2022-08-28T06:12:01.952Z,21.65
2022-08-28T06:14:29.419Z,21.38
2022-08-28T06:16:56.803Z,21.17
2022-08-28T06:19:25.868Z,20.96
2022-08-28T06:21:56.218Z,21.10
2022-08-28T06:24:23.469Z,21.59
2022-08-28T06:26:49.828Z,22.40
2022-08-28T06:29:16.501Z,23.20
2022-08-28T06:31:42.972Z,23.99
2022-08-28T06:34:09.875Z,24.74
2022-08-28T06:36:40.817Z,25.48
2022-08-28T06:39:08.891Z,26.22
2022-08-28T06:41:35.677Z,26.77
2022-08-28T06:44:02.210Z,27.30
2022-08-28T06:46:28.692Z,27.71
2022-08-28T06:48:55.077Z,28.17
2022-08-28T06:51:24.869Z,28.60
2022-08-28T06:53:51.671Z,29.06
2022-08-28T06:56:26.187Z,29.54
2022-08-28T06:58:55.128Z,29.98
2022-08-28T07:01:27.622Z,30.30
2022-08-28T07:03:55.783Z,30.33
2022-08-28T07:06:23.297Z,30.53
2022-08-28T07:08:50.277Z,30.93
2022-08-28T07:11:26.664Z,31.23
2022-08-28T07:13:54.788Z,31.53
2022-08-28T07:16:24.527Z,31.56
2022-08-28T07:18:51.015Z,31.55
2022-08-28T07:21:17.642Z,31.75
2022-08-28T07:23:44.913Z,32.07
2022-08-28T07:26:15.683Z,32.29
2022-08-28T07:28:42.333Z,32.57
2022-08-28T07:31:11.824Z,32.66
2022-08-28T07:33:40.213Z,32.79
2022-08-28T07:36:15.721Z,32.65
2022-08-28T07:38:48.461Z,32.45
2022-08-28T07:41:20.167Z,31.97
2022-08-28T07:43:46.897Z,31.43
2022-08-28T07:46:13.338Z,30.85
2022-08-28T07:48:41.270Z,29.57
2022-08-28T07:51:09.061Z,29.36
2022-08-28T07:53:36.653Z,29.65
2022-08-28T07:56:04.409Z,29.73
2022-08-28T07:58:30.768Z,29.95
2022-08-28T08:00:58.434Z,29.40
2022-08-28T08:03:24.941Z,29.12
2022-08-28T08:06:02.494Z,28.96
2022-08-28T08:08:33.329Z,28.69
2022-08-28T08:11:11.286Z,28.72
2022-08-28T08:13:43.696Z,28.31
2022-08-28T08:16:13.285Z,28.30
2022-08-28T08:18:41.262Z,27.91
2022-08-28T08:21:10.047Z,27.75
2022-08-28T08:23:36.675Z,27.60
2022-08-28T08:26:06.928Z,27.55
2022-08-28T08:28:34.917Z,27.52
2022-08-28T08:31:11.488Z,27.49
2022-08-28T08:33:40.811Z,26.86
2022-08-28T08:36:07.692Z,26.72
2022-08-28T08:38:35.065Z,27.28
2022-08-28T08:41:05.617Z,27.56
2022-08-28T08:43:45.678Z,27.87
2022-08-28T08:46:12.193Z,28.39
2022-08-28T08:48:42.962Z,29.14
2022-08-28T08:51:25.661Z,28.99
2022-08-28T08:54:05.303Z,28.99
2022-08-28T08:56:34.486Z,28.42
2022-08-28T08:59:04.213Z,26.71
2022-08-28T09:01:41.787Z,26.59
2022-08-28T09:04:15.911Z,26.35
2022-08-28T09:07:09.741Z,26.78
2022-08-28T09:09:42.172Z,27.13
2022-08-28T09:12:14.175Z,27.53
2022-08-28T09:14:49.602Z,27.99
2022-08-28T09:17:23.385Z,28.38
2022-08-28T09:19:49.745Z,27.70
2022-08-28T09:22:16.342Z,27.57
2022-08-28T09:24:43.527Z,26.42
2022-08-28T09:27:29.902Z,26.58
2022-08-28T09:30:07.436Z,26.26
2022-08-28T09:32:37.493Z,25.62
2022-08-28T09:35:39.208Z,25.41
2022-08-28T09:38:27.685Z,24.92
2022-08-28T09:41:10.446Z,24.92
2022-08-28T09:43:37.593Z,24.92
2022-08-28T09:46:07.929Z,25.37
2022-08-28T09:48:41.536Z,25.22
2022-08-28T09:51:11.367Z,25.00
2022-08-28T09:54:06.375Z,25.06
2022-08-28T09:56:39.515Z,25.25
2022-08-28T09:59:08.993Z,25.63
2022-08-28T10:01:44.601Z,25.96
2022-08-28T10:04:14.370Z,25.77
2022-08-28T10:06:43.778Z,25.43
2022-08-28T10:09:47.959Z,25.15
2022-08-28T10:12:20.274Z,24.74
2022-08-28T10:14:58.869Z,24.71
2022-08-28T10:17:53.311Z,24.33
2022-08-28T10:20:25.821Z,24.36
2022-08-28T10:23:17.670Z,24.64
2022-08-28T10:26:28.566Z,24.92
2022-08-28T10:28:59.974Z,24.94
2022-08-28T10:31:56.461Z,25.04
2022-08-28T10:34:50.529Z,24.86
2022-08-28T10:37:28.088Z,24.29
2022-08-28T10:40:00.522Z,23.81
2022-08-28T10:42:36.479Z,23.46
2022-08-28T10:45:10.562Z,23.56
2022-08-28T10:47:40.088Z,23.29
2022-08-28T10:50:21.899Z,23.23
2022-08-28T10:53:01.918Z,23.37
2022-08-28T10:55:59.796Z,23.62
2022-08-28T10:58:27.399Z,24.02
2022-08-28T11:00:58.883Z,23.74
2022-08-28T11:03:35.691Z,23.78
2022-08-28T11:06:13.804Z,23.52
2022-08-28T11:08:40.405Z,23.36
2022-08-28T11:11:12.846Z,23.03
2022-08-28T11:13:48.321Z,23.19
2022-08-28T11:16:20.591Z,23.24
2022-08-28T11:18:49.774Z,23.68
2022-08-28T11:21:23.986Z,23.74
2022-08-28T11:24:01.216Z,23.87
2022-08-28T11:26:40.036Z,23.86
2022-08-28T11:29:06.882Z,23.72
2022-08-28T11:31:37.927Z,23.88
2022-08-28T11:34:04.341Z,24.18
2022-08-28T11:36:30.657Z,24.66
2022-08-28T11:38:56.945Z,25.28
2022-08-28T11:41:38.324Z,25.04
2022-08-28T11:44:10.708Z,24.97
2022-08-28T11:46:43.311Z,24.66
2022-08-28T11:49:31.515Z,24.02
2022-08-28T11:52:16.757Z,23.60
2022-08-28T11:54:51.492Z,23.52
2022-08-28T11:57:24.227Z,23.39
2022-08-28T12:00:26.113Z,23.49
2022-08-28T12:03:15.889Z,23.54
2022-08-28T12:05:48.584Z,23.51
2022-08-28T12:08:49.740Z,23.58
2022-08-28T12:11:41.069Z,23.84
2022-08-28T12:14:12.391Z,24.21
2022-08-28T12:17:03.337Z,23.73
2022-08-28T12:19:41.225Z,23.44
2022-08-28T12:22:21.836Z,23.39
2022-08-28T12:24:57.038Z,23.04
2022-08-28T12:27:24.911Z,22.87
2022-08-28T12:29:55.496Z,22.62
2022-08-28T12:32:48.646Z,22.70
2022-08-28T12:35:21.475Z,22.82
2022-08-28T12:37:53.764Z,22.97
2022-08-28T12:40:49.182Z,23.29
2022-08-28T12:43:25.719Z,23.60
2022-08-28T12:45:56.407Z,23.37
2022-08-28T12:48:25.818Z,23.16
2022-08-28T12:50:58.041Z,22.71
2022-08-28T12:53:25.941Z,22.35
2022-08-28T12:55:53.561Z,22.32
2022-08-28T12:58:30.896Z,22.55
2022-08-28T13:01:02.080Z,22.92
2022-08-28T13:03:28.788Z,23.37
2022-08-28T13:06:04.668Z,23.62
2022-08-28T13:08:32.823Z,24.00
2022-08-28T13:10:59.392Z,24.15
2022-08-28T13:13:34.556Z,24.29
2022-08-28T13:16:04.796Z,24.29
2022-08-28T13:18:39.989Z,24.41
2022-08-28T13:21:32.820Z,24.37
2022-08-28T13:24:21.764Z,23.93
2022-08-28T13:27:09.354Z,23.02
2022-08-28T13:29:36.911Z,22.80
2022-08-28T13:32:09.899Z,22.98
2022-08-28T13:34:38.903Z,22.85
2022-08-28T13:37:51.580Z,22.98
2022-08-28T13:43:11.822Z,23.20
2022-08-28T13:45:43.390Z,23.39
2022-08-28T13:48:15.859Z,23.14
2022-08-28T13:50:47.194Z,22.82
2022-08-28T13:53:15.456Z,22.53
2022-08-28T13:55:41.797Z,22.14
2022-08-28T13:58:08.220Z,22.00
2022-08-28T14:00:39.606Z,21.99
2022-08-28T14:03:06.001Z,21.91
2022-08-28T14:05:32.438Z,21.94
2022-08-28T14:07:58.826Z,21.90
2022-08-28T14:10:25.277Z,21.98
2022-08-28T14:12:51.700Z,22.10
2022-08-28T14:15:18.098Z,22.24
2022-08-28T14:17:45.093Z,22.22
2022-08-28T14:20:12.789Z,22.16
2022-08-28T14:22:39.206Z,22.01
2022-08-28T14:25:06.233Z,21.87
2022-08-28T14:27:32.643Z,21.76
2022-08-28T14:29:58.982Z,21.78
2022-08-28T14:32:25.341Z,21.89
2022-08-28T14:34:51.713Z,21.93
2022-08-28T14:37:18.066Z,21.97
2022-08-28T14:39:44.480Z,21.95
2022-08-28T14:42:12.945Z,21.97
2022-08-28T14:44:39.716Z,22.11
2022-08-28T14:47:06.112Z,22.31
2022-08-28T14:49:32.543Z,22.31
2022-08-28T14:51:58.908Z,22.21
2022-08-28T14:54:25.882Z,22.17
2022-08-28T14:56:54.024Z,22.07
2022-08-28T14:59:24.623Z,22.01
2022-08-28T15:01:53.222Z,22.10
2022-08-28T15:04:22.325Z,22.18
2022-08-28T15:06:50.031Z,22.34
2022-08-28T15:09:17.459Z,22.57
2022-08-28T15:11:44.110Z,22.90
2022-08-28T15:14:11.758Z,22.99
2022-08-28T15:16:42.523Z,22.90
2022-08-28T15:19:09.776Z,23.13
2022-08-28T15:21:40.164Z,23.19
2022-08-28T15:24:07.588Z,23.07
2022-08-28T15:26:34.324Z,23.09
2022-08-28T15:29:01.354Z,23.18
2022-08-28T15:31:34.138Z,23.15
2022-08-28T15:34:13.567Z,23.08
2022-08-28T15:36:42.043Z,22.84
2022-08-28T15:39:09.373Z,22.60
2022-08-28T15:41:35.836Z,22.15
2022-08-28T15:44:03.398Z,21.85
2022-08-28T15:46:33.065Z,21.65
2022-08-28T15:49:03.925Z,21.63
2022-08-28T15:51:35.105Z,21.59
2022-08-28T15:54:02.368Z,21.50
2022-08-28T15:56:28.728Z,21.63
2022-08-28T15:58:55.107Z,21.61
2022-08-28T16:01:21.677Z,21.81
2022-08-28T16:03:48.104Z,21.88
2022-08-28T16:06:17.513Z,22.00
2022-08-28T16:08:44.341Z,22.19
2022-08-28T16:11:14.484Z,22.36
2022-08-28T16:13:40.816Z,22.38
2022-08-28T16:16:07.270Z,22.43
2022-08-28T16:18:33.722Z,22.37
2022-08-28T16:21:04.171Z,22.07
2022-08-28T16:23:32.197Z,22.06
2022-08-28T16:25:59.709Z,21.98
2022-08-28T16:28:26.126Z,21.71
2022-08-28T16:30:54.011Z,21.37
2022-08-28T16:33:20.402Z,20.97
2022-08-28T16:35:55.008Z,20.81
2022-08-28T16:38:22.709Z,20.65
2022-08-28T16:40:49.300Z,20.48
2022-08-28T16:43:15.855Z,20.36
2022-08-28T16:45:44.297Z,20.24
2022-08-28T16:48:12.290Z,20.08
2022-08-28T16:50:40.376Z,20.06
2022-08-28T16:53:07.383Z,20.01
2022-08-28T16:55:34.249Z,19.91
2022-08-28T16:58:00.633Z,19.78
2022-08-28T17:00:27.067Z,19.68
2022-08-28T17:02:54.132Z,19.68
2022-08-28T17:05:20.720Z,19.61
2022-08-28T17:07:48.235Z,19.59
2022-08-28T17:10:17.759Z,19.56
2022-08-28T17:12:44.169Z,19.46
2022-08-28T17:15:11.427Z,19.48
2022-08-28T17:17:38.179Z,19.52
2022-08-28T17:20:05.962Z,19.56
2022-08-28T17:22:32.517Z,19.68
2022-08-28T17:25:06.311Z,19.76
2022-08-28T17:27:33.662Z,19.91
2022-08-28T17:30:00.446Z,19.88
2022-08-28T17:32:27.625Z,19.90
2022-08-28T17:34:54.008Z,19.96
2022-08-28T17:37:20.378Z,19.88
2022-08-28T17:39:47.691Z,19.86
2022-08-28T17:42:14.077Z,19.72
2022-08-28T17:44:40.493Z,19.61
2022-08-28T17:47:07.412Z,19.63
2022-08-28T17:49:33.837Z,19.56
2022-08-28T17:52:00.267Z,19.44
2022-08-28T17:54:26.623Z,19.36
2022-08-28T17:56:53.440Z,19.21
2022-08-28T17:59:21.192Z,19.16
2022-08-28T18:01:47.700Z,18.99
2022-08-28T18:04:18.005Z,18.86
2022-08-28T18:06:47.991Z,18.74
2022-08-28T18:09:14.743Z,18.59
2022-08-28T18:11:41.734Z,18.49
2022-08-28T18:14:08.177Z,18.44
2022-08-28T18:16:36.428Z,18.25
2022-08-28T18:19:05.308Z,18.11
2022-08-28T18:21:32.129Z,18.02
2022-08-28T18:23:58.824Z,17.97
2022-08-28T18:26:25.351Z,17.90
2022-08-28T18:28:51.847Z,17.82
2022-08-28T18:31:18.527Z,17.77
2022-08-28T18:33:46.120Z,17.69
2022-08-28T18:36:14.232Z,17.55
2022-08-28T18:38:41.923Z,17.50
2022-08-28T18:41:09.445Z,17.43
2022-08-28T18:43:36.281Z,17.24
2022-08-28T18:46:04.631Z,17.13
2022-08-28T18:48:31.923Z,17.07
2022-08-28T18:50:58.243Z,16.95
2022-08-28T18:53:24.895Z,16.79
2022-08-28T18:55:53.796Z,16.68
2022-08-28T18:58:21.058Z,16.63
2022-08-28T19:00:47.590Z,16.64
2022-08-28T19:03:14.009Z,16.56
2022-08-28T19:05:40.400Z,16.44
2022-08-28T19:08:07.170Z,16.45
2022-08-28T19:10:35.168Z,16.37
2022-08-28T19:13:02.628Z,16.31
2022-08-28T19:15:29.986Z,16.24
2022-08-28T19:17:56.455Z,16.17
2022-08-28T19:20:22.979Z,16.10
2022-08-28T19:22:49.697Z,16.03
2022-08-28T19:25:28.679Z,15.96
2022-08-28T19:27:59.822Z,15.90
2022-08-28T19:30:28.268Z,15.84
2022-08-28T19:32:55.238Z,15.79
2022-08-28T19:35:24.093Z,15.71
2022-08-28T19:37:54.374Z,15.66
2022-08-28T19:40:21.646Z,15.59
2022-08-28T19:42:48.501Z,15.51
2022-08-28T19:45:15.301Z,15.47
2022-08-28T19:47:42.511Z,15.35
2022-08-28T19:50:11.310Z,15.36
2022-08-28T19:52:37.794Z,15.27
2022-08-28T19:55:05.758Z,15.19
2022-08-28T19:57:33.129Z,15.09
2022-08-28T19:59:59.569Z,15.04
2022-08-28T20:02:29.153Z,14.96
2022-08-28T20:04:55.569Z,14.83
2022-08-28T20:07:22.344Z,14.84
2022-08-28T20:09:48.730Z,14.79
2022-08-28T20:12:15.100Z,14.69
2022-08-28T20:14:41.462Z,14.66
2022-08-28T20:17:07.876Z,14.66
2022-08-28T20:19:34.233Z,14.50
2022-08-28T20:22:00.585Z,14.51
2022-08-28T20:24:27.082Z,14.47
2022-08-28T20:26:53.650Z,14.46
2022-08-28T20:29:20.685Z,14.40
2022-08-28T20:31:47.869Z,14.35
2022-08-28T20:34:17.172Z,14.29
2022-08-28T20:36:43.986Z,14.24
2022-08-28T20:39:10.405Z,14.18
2022-08-28T20:41:38.931Z,14.10
2022-08-28T20:44:07.112Z,14.09
2022-08-28T20:46:39.817Z,14.03
2022-08-28T20:49:08.992Z,14.02
2022-08-28T20:51:35.519Z,13.97
2022-08-28T20:54:01.845Z,13.86
2022-08-28T20:56:28.188Z,13.88
2022-08-28T20:58:54.559Z,13.79
2022-08-28T21:01:20.944Z,13.76
2022-08-28T21:03:47.438Z,13.81
2022-08-28T21:06:13.781Z,13.77
2022-08-28T21:08:40.171Z,13.72
2022-08-28T21:11:06.545Z,13.62
2022-08-28T21:13:32.873Z,13.52
2022-08-28T21:15:59.219Z,13.32
2022-08-28T21:18:25.636Z,13.31
2022-08-28T21:20:54.580Z,13.21
2022-08-28T21:23:20.937Z,13.06
2022-08-28T21:25:47.260Z,13.00
2022-08-28T21:28:13.687Z,12.98
2022-08-28T21:30:40.978Z,12.91
2022-08-28T21:33:07.346Z,12.85
2022-08-28T21:35:34.540Z,12.78
2022-08-28T21:38:00.878Z,12.70
2022-08-28T21:40:27.251Z,12.54
2022-08-28T21:42:53.657Z,12.50
2022-08-28T21:45:20.016Z,12.48
2022-08-28T21:47:46.424Z,12.40
2022-08-28T21:50:12.941Z,12.22
2022-08-28T21:52:39.999Z,12.27
2022-08-28T21:55:10.697Z,12.24
2022-08-28T21:57:37.260Z,12.19
2022-08-28T22:00:09.998Z,12.13
2022-08-28T22:02:36.400Z,12.02
2022-08-28T22:05:03.491Z,12.02
2022-08-28T22:07:29.965Z,11.93
2022-08-28T22:09:56.299Z,11.83
2022-08-28T22:12:22.719Z,11.73
2022-08-28T22:14:49.218Z,11.72
2022-08-28T22:17:15.697Z,11.62
2022-08-28T22:19:42.343Z,11.62
2022-08-28T22:22:12.888Z,11.54
2022-08-28T22:24:39.285Z,11.50
2022-08-28T22:27:05.736Z,11.44
2022-08-28T22:29:32.379Z,11.31
2022-08-28T22:31:58.729Z,11.35
2022-08-28T22:34:25.101Z,11.26
2022-08-28T22:36:51.437Z,11.24
2022-08-28T22:39:17.807Z,11.24
2022-08-28T22:41:44.133Z,11.29
2022-08-28T22:44:10.482Z,11.28
2022-08-28T22:46:36.935Z,11.26
2022-08-28T22:49:03.838Z,11.21
2022-08-28T22:51:32.688Z,11.13
2022-08-28T22:53:59.028Z,11.01
2022-08-28T22:56:25.368Z,11.04
2022-08-28T22:58:51.735Z,10.94
2022-08-28T23:01:22.688Z,10.91
2022-08-28T23:03:49.412Z,10.78
2022-08-28T23:06:16.089Z,10.76
2022-08-28T23:08:42.986Z,10.73
2022-08-28T23:11:09.882Z,10.70
2022-08-28T23:13:36.682Z,10.68
2022-08-28T23:16:03.421Z,10.60
2022-08-28T23:18:41.515Z,10.60
2022-08-28T23:21:12.980Z,10.62
2022-08-28T23:23:39.376Z,10.55
2022-08-28T23:26:10.600Z,10.58
2022-08-28T23:28:36.936Z,10.55
2022-08-28T23:31:03.284Z,10.55
2022-08-28T23:33:29.633Z,10.48
2022-08-28T23:35:55.988Z,10.50
2022-08-28T23:38:22.357Z,10.42
2022-08-28T23:40:48.810Z,10.39
2022-08-28T23:43:17.302Z,10.46
2022-08-28T23:45:44.017Z,10.44
2022-08-28T23:48:10.942Z,10.35
2022-08-28T23:50:39.995Z,10.40
2022-08-28T23:53:08.514Z,10.37
2022-08-28T23:55:35.744Z,10.35
2022-08-28T23:58:03.572Z,10.31
